Flight Track Log - Related Links

Times and Time Zones

All times are in EDT time to prevent confusion due to time zone crossing. See the FFT795 flight status page for this flight to view local times or setup timezone preferences in your user account.

Time Position Orientation Groundspeed Altitude Reporting Facility
EDT Latitude Longitude Course Direction KTS MPH feet Rate Location/Type
Fri 02:28:09 PM 39.8333 -104.7833 270° West 207 238 7,100  Level Denver TRACON
Fri 02:29:15 PM 39.8333 -104.9000 270° West 287 330 9,400 2,496 Climbing Denver TRACON
Fri 02:30:02 PM 39.8128 -104.9728 250° West 303 349 11,800 3,028 Climbing Denver Center
Fri 02:31:04 PM 39.7858 -105.0742 251° West 299 344 14,900 2,710 Climbing Denver Center
Fri 02:32:06 PM 39.7586 -105.1797 251° West 308 354 17,400 2,371 Climbing Denver Center
Fri 02:33:08 PM 39.7300 -105.2994 253° West 321 369 19,800 2,129 Climbing Denver Center
Fri 02:34:10 PM 39.7011 -105.4128 252° West 332 382 21,800 1,984 Climbing Denver Center
Fri 02:35:12 PM 39.6764 -105.5439 256° West 347 399 23,900 1,597 Climbing Denver Center
Fri 02:36:14 PM 39.6633 -105.6750 263° West 367 422 25,100 968 Climbing Denver Center
Fri 02:37:16 PM 39.6689 -105.8256 273° West 403 464 25,900 1,065 Climbing Denver Center
Fri 02:38:18 PM 39.7306 -105.9572 301° West 424 488 27,300 1,366 Climbing Denver Center
Fri 02:39:19 PM 39.7911 -106.0942 300° West 436 502 28,700 1,415 Climbing Denver Center
Fri 02:40:21 PM 39.8539 -106.2336 300° West 445 512 30,200 1,597 Climbing Denver Center
Fri 02:41:23 PM 39.9150 -106.3733 300° West 446 513 32,000 1,742 Climbing Denver Center
Fri 02:42:25 PM 39.9853 -106.5297 300° West 445 512 33,800 968 Climbing Denver Center
Fri 02:43:27 PM 40.0525 -106.6828 300° West 438 504 34,000 97 Climbing Denver Center
Fri 02:44:29 PM 40.1094 -106.8142 300° West 435 501 34,000  Level Denver Center
Fri 02:45:31 PM 40.1764 -106.9672 300° West 435 501 34,000  Level Denver Center
Fri 02:46:32 PM 40.2333 -107.0986 300° West 435 501 34,000  Level Denver Center
Fri 02:47:34 PM 40.2897 -107.2289 300° West 431 496 34,000  Level Denver Center
Fri 02:48:36 PM 40.3553 -107.3825 299° West 433 498 34,000  Level Denver Center
Fri 02:49:38 PM 40.4111 -107.5128 299° West 430 495 34,000  Level Denver Center
Fri 02:50:40 PM 40.4775 -107.6683 299° West 436 502 34,000  Level Denver Center
Fri 02:51:42 PM 40.5331 -107.8006 299° West 434 499 34,000  Level Denver Center
Fri 02:52:43 PM 40.5797 -107.9111 299° West 434 499 34,000  Level Denver Center
Fri 02:53:46 PM 40.6533 -108.0867 299° West 433 498 34,000  Level Denver Center
Fri 02:54:47 PM 40.7183 -108.2400 299° West 432 497 34,000 537 Level Denver Center
Fri 02:55:49 PM 40.7744 -108.3772 298° West 429 494 35,100 968 Climbing Denver Center
Fri 02:56:51 PM 40.8300 -108.5100 299° West 430 495 36,000 435 Climbing Salt Lake Center
Fri 02:57:53 PM 40.8917 -108.6617 298° West 421 484 36,000  Level Salt Lake Center
Fri 02:58:55 PM 40.9461 -108.7931 299° West 423 487 36,000  Level Salt Lake Center
Fri 02:59:57 PM 41.0097 -108.9481 299° West 428 493 36,000  Level Salt Lake Center
Fri 03:00:59 PM 41.0639 -109.0819 298° West 429 494 36,000  Level Salt Lake Center
Fri 03:02:00 PM 41.1175 -109.2156 298° West 427 491 36,000  Level Salt Lake Center
Fri 03:03:02 PM 41.1794 -109.3706 298° West 423 487 36,000  Level Salt Lake Center
Fri 03:04:04 PM 41.2322 -109.5036 298° West 423 487 36,000  Level Salt Lake Center
Fri 03:05:06 PM 41.2942 -109.6581 298° West 421 484 36,000  Level Salt Lake Center
Fri 03:06:08 PM 41.3469 -109.7889 298° West 419 482 36,000  Level Salt Lake Center
Fri 03:07:10 PM 41.4072 -109.9444 297° West 421 484 36,000  Level Salt Lake Center
Fri 03:08:14 PM 41.4597 -110.0764 298° West 421 484 36,000  Level Salt Lake Center
Fri 03:09:14 PM 41.5117 -110.2083 298° West 419 482 36,000  Level Salt Lake Center
Fri 03:10:16 PM 41.5706 -110.3617 297° West 417 480 36,000  Level Salt Lake Center
Fri 03:11:18 PM 41.6211 -110.4953 297° West 420 483 36,000  Level Salt Lake Center
Fri 03:12:20 PM 41.6819 -110.6475 298° West 417 480 36,000  Level Salt Lake Center
Fri 03:13:21 PM 41.7319 -110.7797 297° West 416 479 36,000  Level Salt Lake Center
Fri 03:14:23 PM 41.7900 -110.9325 297° West 413 475 36,000  Level Salt Lake Center
Fri 03:15:25 PM 41.8406 -111.0650 297° West 414 476 36,000  Level Salt Lake Center
Fri 03:16:27 PM 41.8917 -111.2014 297° West 412 474 36,000  Level Salt Lake Center
Fri 03:17:29 PM 41.9436 -111.3397 297° West 416 479 36,000 48 Level Salt Lake Center
Fri 03:18:31 PM 42.0058 -111.5064 297° West 418 481 36,100 48 Climbing Salt Lake Center
Fri 03:19:33 PM 42.0586 -111.6478 297° West 424 488 36,100  Level Salt Lake Center
Fri 03:20:35 PM 42.1103 -111.7875 297° West 421 484 36,100 -48 Level Salt Lake Center
Fri 03:21:37 PM 42.1619 -111.9269 297° West 419 482 36,000 -48 Descending Salt Lake Center
Fri 03:22:39 PM 42.2131 -112.0664 296° West 417 480 36,000  Level Salt Lake Center
Fri 03:23:41 PM 42.2650 -112.2072 297° West 418 481 36,000  Level Salt Lake Center
Fri 03:24:43 PM 42.3250 -112.3750 296° West 416 479 36,000  Level Salt Lake Center
Fri 03:25:45 PM 42.3769 -112.5139 297° West 416 479 36,000  Level Salt Lake Center
Fri 03:26:47 PM 42.4264 -112.6542 296° West 415 478 36,000  Level Salt Lake Center
Fri 03:27:49 PM 42.4758 -112.7947 296° West 415 478 36,000  Level Salt Lake Center
Fri 03:28:51 PM 42.5256 -112.9333 296° West 414 476 36,000  Level Salt Lake Center
Fri 03:29:53 PM 42.5850 -113.1031 295° West 416 479 36,000  Level Salt Lake Center
Fri 03:30:55 PM 42.6344 -113.2442 296° West 416 479 36,000 48 Level Salt Lake Center
Fri 03:31:57 PM 42.6833 -113.3794 296° West 413 475 36,100  Climbing Salt Lake Center
Fri 03:32:59 PM 42.7383 -113.5381 295° West 416 479 36,000 -48 Descending Salt Lake Center
Fri 03:34:01 PM 42.7847 -113.6700 296° West 407 468 36,000  Level Salt Lake Center
Fri 03:35:03 PM 42.8392 -113.8267 295° West 409 471 36,000  Level Salt Lake Center
Fri 03:36:05 PM 42.8853 -113.9753 293° West 413 475 36,000  Level Salt Lake Center
Fri 03:37:07 PM 42.9344 -114.1156 296° West 410 472 36,000 48 Level Salt Lake Center
Fri 03:38:09 PM 42.9853 -114.2572 296° West 415 478 36,100 48 Climbing Salt Lake Center
Fri 03:39:11 PM 43.0289 -114.3964 293° West 416 479 36,100 -48 Level Salt Lake Center
Fri 03:40:13 PM 43.0836 -114.5544 295° West 411 473 36,000 -48 Descending Salt Lake Center
Fri 03:41:15 PM 43.1286 -114.6917 294° West 412 474 36,000  Level Salt Lake Center
Fri 03:42:17 PM 43.1825 -114.8506 295° West 412 474 36,000  Level Salt Lake Center
Fri 03:43:19 PM 43.2278 -114.9883 294° West 414 476 36,000  Level Salt Lake Center
Fri 03:44:20 PM 43.2800 -115.1494 294° West 414 476 36,000  Level Salt Lake Center
Fri 03:45:22 PM 43.3253 -115.2853 295° West 410 472 36,000  Level Salt Lake Center
Fri 03:46:24 PM 43.3769 -115.4461 294° West 412 474 36,000  Level Salt Lake Center
Fri 03:47:26 PM 43.4208 -115.5833 294° West 410 472 36,000  Level Salt Lake Center
Fri 03:48:27 PM 43.4653 -115.7203 294° West 409 471 36,000  Level Salt Lake Center
Fri 03:49:29 PM 43.5167 -115.8831 294° West 413 475 36,000 48 Level Salt Lake Center
Fri 03:50:31 PM 43.5617 -116.0231 294° West 416 479 36,100 49 Climbing Salt Lake Center
Fri 03:51:32 PM 43.6128 -116.1869 293° West 416 479 36,100 -49 Level Salt Lake Center
Fri 03:52:34 PM 43.6564 -116.3269 293° West 413 475 36,000 -48 Descending Salt Lake Center
Fri 03:53:36 PM 43.6997 -116.4650 294° West 409 471 36,000  Level Salt Lake Center
Fri 03:54:37 PM 43.7503 -116.6283 293° West 414 476 36,000 49 Level Salt Lake Center
Fri 03:55:39 PM 43.7936 -116.7697 293° West 417 480 36,100 48 Climbing Salt Lake Center
Fri 03:56:41 PM 43.8447 -116.9364 293° West 420 483 36,100  Level Salt Lake Center
Fri 03:57:43 PM 43.8883 -117.0786 293° West 418 481 36,100 -49 Level Salt Lake Center
Fri 03:58:44 PM 43.9383 -117.2419 293° West 411 473 36,000 -49 Descending Salt Lake Center
Fri 03:59:46 PM 43.9797 -117.3819 292° West 411 473 36,000  Level Salt Lake Center
Fri 04:00:47 PM 44.0214 -117.5206 293° West 407 468 36,000  Level Salt Lake Center
Fri 04:01:49 PM 44.0708 -117.6831 293° West 410 472 36,000  Level Salt Lake Center
Fri 04:02:51 PM 44.1122 -117.8233 292° West 409 471 36,000 49 Level Salt Lake Center
Fri 04:03:52 PM 44.1594 -117.9875 292° West 409 471 36,100  Climbing Salt Lake Center
Fri 04:04:54 PM 44.2006 -118.1275 292° West 407 468 36,000 -48 Descending Salt Lake Center
Fri 04:05:56 PM 44.2417 -118.2678 292° West 408 470 36,000  Level Salt Lake Center
Fri 04:06:57 PM 44.2828 -118.4086 292° West 406 467 36,000  Level Salt Lake Center
Fri 04:07:30 PM 44.3081 -118.4956 292° West 406 467 36,000  Level Seattle Center
Fri 04:08:31 PM 44.3497 -118.6414 292° West 405 466 36,000  Level Seattle Center
Fri 04:09:32 PM 44.3908 -118.7883 291° West 406 467 36,000  Level Seattle Center
Fri 04:10:33 PM 44.4333 -118.9336 292° West 406 467 36,000  Level Seattle Center
Fri 04:11:34 PM 44.4744 -119.0794 292° West 403 464 36,000  Level Seattle Center
Fri 04:12:35 PM 44.5236 -119.2561 291° West 407 468 36,000  Level Seattle Center
Fri 04:13:36 PM 44.5633 -119.4011 291° West 400 460 36,000  Level Seattle Center
Fri 04:14:37 PM 44.6044 -119.5458 292° West 399 459 36,000  Level Seattle Center
Fri 04:15:38 PM 44.6442 -119.6894 291° West 396 456 36,000  Level Seattle Center
Fri 04:16:39 PM 44.7056 -119.8181 304° West 395 455 36,000 49 Level Seattle Center
Fri 04:17:40 PM 44.7706 -119.9425 306° West 393 452 36,100  Climbing Seattle Center
Fri 04:18:41 PM 44.8364 -120.0664 307° West 390 449 36,000 -49 Descending Seattle Center
Fri 04:19:42 PM 44.9019 -120.1883 307° West 384 442 36,000 -295 Level Seattle Center
Fri 04:20:43 PM 44.9658 -120.3092 307° West 381 438 35,400 -787 Descending Seattle Center
Fri 04:21:44 PM 45.0294 -120.4328 306° West 388 447 34,400 -1,820 Descending Seattle Center
Fri 04:22:45 PM 45.0944 -120.5581 306° West 395 455 31,700 -2,508 Descending Seattle Center
Fri 04:23:46 PM 45.1583 -120.6833 306° West 393 452 29,300 -2,244 Descending Seattle Center
Fri 04:24:48 PM 45.2217 -120.8042 307° West 386 444 27,100 -2,146 Descending Seattle Center
Fri 04:25:49 PM 45.2839 -120.9244 306° West 381 438 24,900 -2,164 Descending Seattle Center
Fri 04:26:50 PM 45.3442 -121.0439 306° West 375 432 22,700 -2,115 Descending Seattle Center
Fri 04:27:51 PM 45.4050 -121.1631 306° West 374 430 20,600 -2,508 Descending Seattle Center
Fri 04:28:52 PM 45.4406 -121.3275 287° West 384 442 17,600 -2,554 Descending Seattle Center
Fri 04:29:32 PM 45.4567 -121.4228 284° West 371 427 16,300 -2,066 Descending Seattle Center
Fri 04:29:53 PM 45.4572 -121.4714 271° West 373 429 15,500 -1,814 Descending Seattle Center
Fri 04:30:15 PM 45.4686 -121.5197 289° West 361 415 15,000 -1,770 Descending Seattle Center
Fri 04:30:54 PM 45.4744 -121.6092 275° West 359 413 13,700 -2,200 Descending Seattle Center
Fri 04:31:15 PM 45.4844 -121.6553 287° West 346 398 12,800 -2,066 Descending Seattle Center
Fri 04:31:55 PM 45.4917 -121.7425 277° West 348 400 11,600 -1,855 Descending Seattle Center
Fri 04:32:10 PM 45.4994 -121.7786 287° West 343 395 11,100 -1,180 Descending Seattle Center
Fri 04:32:56 PM 45.5011 -121.8692 272° West 331 381 10,400 -1,279 Descending Seattle Center
Fri 04:33:11 PM 45.5031 -121.9100 274° West 290 334 9,800 -2,164 Descending Seattle Center
Fri 04:33:57 PM 45.5033 -121.9800 270° West 301 346 8,200 -2,066 Descending Seattle Center
Fri 04:34:12 PM 45.5056 -122.0264 274° West 287 330 7,700 -1,967 Descending Seattle Center
Fri 04:34:58 PM 45.5044 -122.0906 269° West 288 331 6,200 -1,389 Descending Seattle Center
Fri 04:36:00 PM 45.5097 -122.1997 274° West 282 325 5,200 -1,220 Descending Seattle Center
Fri 04:37:01 PM 45.5122 -122.3003 272° West 270 311 3,700 -1,328 Descending Seattle Center
Fri 04:38:02 PM 45.5214 -122.4075 277° West 245 282 2,500 -1,082 Descending Seattle Center
Fri 04:39:03 PM 45.5472 -122.4764 298° West 215 247 1,500 -987 Descending Seattle Center
Fri 04:39:21 PM 45.5536 -122.4942 297° West 173 199 1,200 -689 Descending Seattle Center
Fri 04:40:04 PM 45.5689 -122.5261 304° West 186 214 800 -590 Descending Seattle Center
Fri 04:40:22 PM 45.5708 -122.5364 285° West 118 136 600 -492 Descending Seattle Center
Fri 04:41:05 PM 45.5828 -122.5650 301° West 166 191 300 -419 Descending Seattle Center

Login

Don't have an account? Register now (free) for customized features, flight alerts, and more!